sensor_id;sensor_type;location;lat;lon;timestamp;P1;durP1;ratioP1;P2;durP2;ratioP2
58384;SDS011;44185;47.844;8.966;2023-10-31T00:00:26;3.40;;;1.70;;
58384;SDS011;44185;47.844;8.966;2023-10-31T00:02:51;3.40;;;1.67;;
58384;SDS011;44185;47.844;8.966;2023-10-31T00:05:17;4.05;;;2.00;;
58384;SDS011;44185;47.844;8.966;2023-10-31T00:07:42;3.65;;;2.03;;
58384;SDS011;44185;47.844;8.966;2023-10-31T00:10:07;3.72;;;1.85;;
58384;SDS011;44185;47.844;8.966;2023-10-31T00:12:32;5.40;;;1.92;;
58384;SDS011;44185;47.844;8.966;2023-10-31T00:14:59;1.83;;;1.23;;
58384;SDS011;44185;47.844;8.966;2023-10-31T00:17:24;2.88;;;1.95;;
58384;SDS011;44185;47.844;8.966;2023-10-31T00:19:49;4.10;;;2.05;;
58384;SDS011;44185;47.844;8.966;2023-10-31T00:22:15;2.67;;;1.77;;
58384;SDS011;44185;47.844;8.966;2023-10-31T00:24:40;3.08;;;2.10;;
58384;SDS011;44185;47.844;8.966;2023-10-31T00:27:05;1.83;;;1.60;;
58384;SDS011;44185;47.844;8.966;2023-10-31T00:29:30;3.60;;;1.45;;
58384;SDS011;44185;47.844;8.966;2023-10-31T00:31:57;1.38;;;1.15;;
58384;SDS011;44185;47.844;8.966;2023-10-31T00:34:22;2.33;;;1.20;;
58384;SDS011;44185;47.844;8.966;2023-10-31T00:36:47;2.55;;;1.17;;
58384;SDS011;44185;47.844;8.966;2023-10-31T00:39:12;2.00;;;1.00;;
58384;SDS011;44185;47.844;8.966;2023-10-31T00:41:38;0.97;;;0.87;;
58384;SDS011;44185;47.844;8.966;2023-10-31T00:44:04;2.58;;;1.40;;
58384;SDS011;44185;47.844;8.966;2023-10-31T00:46:29;1.67;;;0.80;;
58384;SDS011;44185;47.844;8.966;2023-10-31T00:48:56;1.35;;;1.25;;
58384;SDS011;44185;47.844;8.966;2023-10-31T00:51:21;1.38;;;0.98;;
58384;SDS011;44185;47.844;8.966;2023-10-31T00:53:47;2.53;;;1.20;;
58384;SDS011;44185;47.844;8.966;2023-10-31T00:56:12;1.30;;;1.00;;
58384;SDS011;44185;47.844;8.966;2023-10-31T00:58:37;2.28;;;1.08;;
58384;SDS011;44185;47.844;8.966;2023-10-31T01:01:02;1.20;;;1.08;;
58384;SDS011;44185;47.844;8.966;2023-10-31T01:03:28;1.52;;;1.23;;
58384;SDS011;44185;47.844;8.966;2023-10-31T01:05:54;1.73;;;1.05;;
58384;SDS011;44185;47.844;8.966;2023-10-31T01:08:19;1.50;;;1.40;;
58384;SDS011;44185;47.844;8.966;2023-10-31T01:10:45;2.15;;;1.02;;
58384;SDS011;44185;47.844;8.966;2023-10-31T01:13:10;1.08;;;0.93;;
58384;SDS011;44185;47.844;8.966;2023-10-31T01:15:36;0.77;;;0.77;;
58384;SDS011;44185;47.844;8.966;2023-10-31T01:18:01;1.77;;;0.70;;
58384;SDS011;44185;47.844;8.966;2023-10-31T01:20:26;1.33;;;0.80;;
58384;SDS011;44185;47.844;8.966;2023-10-31T01:22:53;1.10;;;0.80;;
58384;SDS011;44185;47.844;8.966;2023-10-31T01:25:18;0.55;;;0.55;;
58384;SDS011;44185;47.844;8.966;2023-10-31T01:27:44;1.35;;;0.85;;
58384;SDS011;44185;47.844;8.966;2023-10-31T01:30:09;1.27;;;0.70;;
58384;SDS011;44185;47.844;8.966;2023-10-31T01:32:35;2.05;;;0.80;;
58384;SDS011;44185;47.844;8.966;2023-10-31T01:35:00;1.80;;;0.90;;
58384;SDS011;44185;47.844;8.966;2023-10-31T01:37:25;1.58;;;1.15;;
58384;SDS011;44185;47.844;8.966;2023-10-31T01:39:52;1.55;;;1.08;;
58384;SDS011;44185;47.844;8.966;2023-10-31T01:42:17;2.10;;;0.98;;
58384;SDS011;44185;47.844;8.966;2023-10-31T01:44:42;1.40;;;0.90;;
58384;SDS011;44185;47.844;8.966;2023-10-31T01:47:07;1.02;;;0.70;;
58384;SDS011;44185;47.844;8.966;2023-10-31T01:49:32;1.92;;;0.85;;
58384;SDS011;44185;47.844;8.966;2023-10-31T01:51:58;2.33;;;0.90;;
58384;SDS011;44185;47.844;8.966;2023-10-31T01:54:23;2.25;;;1.10;;
58384;SDS011;44185;47.844;8.966;2023-10-31T01:56:50;1.17;;;0.98;;
58384;SDS011;44185;47.844;8.966;2023-10-31T01:59:15;2.10;;;0.70;;
58384;SDS011;44185;47.844;8.966;2023-10-31T02:01:40;1.08;;;0.75;;
58384;SDS011;44185;47.844;8.966;2023-10-31T02:04:06;0.95;;;0.65;;
58384;SDS011;44185;47.844;8.966;2023-10-31T02:06:31;1.48;;;0.60;;
58384;SDS011;44185;47.844;8.966;2023-10-31T02:08:56;0.80;;;0.80;;
58384;SDS011;44185;47.844;8.966;2023-10-31T02:11:21;1.05;;;0.70;;
58384;SDS011;44185;47.844;8.966;2023-10-31T02:13:48;2.15;;;0.80;;
58384;SDS011;44185;47.844;8.966;2023-10-31T02:16:13;0.63;;;0.52;;
58384;SDS011;44185;47.844;8.966;2023-10-31T02:18:39;0.77;;;0.50;;
58384;SDS011;44185;47.844;8.966;2023-10-31T02:21:04;0.88;;;0.88;;
58384;SDS011;44185;47.844;8.966;2023-10-31T02:23:31;1.25;;;0.55;;
58384;SDS011;44185;47.844;8.966;2023-10-31T02:25:56;1.70;;;0.80;;
58384;SDS011;44185;47.844;8.966;2023-10-31T02:28:22;1.83;;;0.90;;
58384;SDS011;44185;47.844;8.966;2023-10-31T02:30:47;0.55;;;0.45;;
58384;SDS011;44185;47.844;8.966;2023-10-31T02:33:12;2.30;;;0.77;;
58384;SDS011;44185;47.844;8.966;2023-10-31T02:35:37;0.77;;;0.55;;
58384;SDS011;44185;47.844;8.966;2023-10-31T02:38:02;4.60;;;0.88;;
58384;SDS011;44185;47.844;8.966;2023-10-31T02:40:29;2.75;;;0.77;;
58384;SDS011;44185;47.844;8.966;2023-10-31T02:42:54;0.88;;;0.88;;
58384;SDS011;44185;47.844;8.966;2023-10-31T02:45:20;2.40;;;0.82;;
58384;SDS011;44185;47.844;8.966;2023-10-31T02:47:45;3.17;;;1.15;;
58384;SDS011;44185;47.844;8.966;2023-10-31T02:50:10;0.65;;;0.65;;
58384;SDS011;44185;47.844;8.966;2023-10-31T02:52:35;1.17;;;0.77;;
58384;SDS011;44185;47.844;8.966;2023-10-31T02:55:01;0.88;;;0.88;;
58384;SDS011;44185;47.844;8.966;2023-10-31T02:57:27;2.22;;;1.33;;
58384;SDS011;44185;47.844;8.966;2023-10-31T02:59:52;1.50;;;0.70;;
58384;SDS011;44185;47.844;8.966;2023-10-31T03:02:18;0.82;;;0.68;;
58384;SDS011;44185;47.844;8.966;2023-10-31T03:04:43;1.45;;;0.65;;
58384;SDS011;44185;47.844;8.966;2023-10-31T03:07:08;1.02;;;0.60;;
58384;SDS011;44185;47.844;8.966;2023-10-31T03:09:33;0.68;;;0.68;;
58384;SDS011;44185;47.844;8.966;2023-10-31T03:11:59;1.80;;;0.85;;
58384;SDS011;44185;47.844;8.966;2023-10-31T03:14:25;3.53;;;0.82;;
58384;SDS011;44185;47.844;8.966;2023-10-31T03:16:50;0.93;;;0.90;;
58384;SDS011;44185;47.844;8.966;2023-10-31T03:19:16;3.63;;;0.88;;
58384;SDS011;44185;47.844;8.966;2023-10-31T03:21:41;0.65;;;0.65;;
58384;SDS011;44185;47.844;8.966;2023-10-31T03:24:06;0.90;;;0.60;;
58384;SDS011;44185;47.844;8.966;2023-10-31T03:26:32;0.70;;;0.70;;
58384;SDS011;44185;47.844;8.966;2023-10-31T03:28:57;3.05;;;0.63;;
58384;SDS011;44185;47.844;8.966;2023-10-31T03:31:24;2.10;;;0.57;;
58384;SDS011;44185;47.844;8.966;2023-10-31T03:33:49;2.78;;;0.90;;
58384;SDS011;44185;47.844;8.966;2023-10-31T03:36:14;1.63;;;0.70;;
58384;SDS011;44185;47.844;8.966;2023-10-31T03:38:39;0.25;;;0.25;;
58384;SDS011;44185;47.844;8.966;2023-10-31T03:41:05;2.38;;;0.57;;
58384;SDS011;44185;47.844;8.966;2023-10-31T03:43:30;1.55;;;0.73;;
58384;SDS011;44185;47.844;8.966;2023-10-31T03:45:55;1.60;;;0.68;;
58384;SDS011;44185;47.844;8.966;2023-10-31T03:48:22;0.75;;;0.30;;
58384;SDS011;44185;47.844;8.966;2023-10-31T03:50:47;1.10;;;0.50;;
58384;SDS011;44185;47.844;8.966;2023-10-31T03:53:12;1.13;;;0.70;;
58384;SDS011;44185;47.844;8.966;2023-10-31T03:55:37;1.27;;;0.50;;
58384;SDS011;44185;47.844;8.966;2023-10-31T03:58:03;0.38;;;0.32;;
58384;SDS011;44185;47.844;8.966;2023-10-31T04:00:28;0.60;;;0.43;;
58384;SDS011;44185;47.844;8.966;2023-10-31T04:02:53;0.93;;;0.82;;
58384;SDS011;44185;47.844;8.966;2023-10-31T04:05:20;1.33;;;0.70;;
58384;SDS011;44185;47.844;8.966;2023-10-31T04:07:45;0.60;;;0.60;;
58384;SDS011;44185;47.844;8.966;2023-10-31T04:10:11;0.43;;;0.43;;
58384;SDS011;44185;47.844;8.966;2023-10-31T04:12:36;3.35;;;1.00;;
58384;SDS011;44185;47.844;8.966;2023-10-31T04:15:02;0.80;;;0.57;;
58384;SDS011;44185;47.844;8.966;2023-10-31T04:17:27;1.55;;;0.85;;
58384;SDS011;44185;47.844;8.966;2023-10-31T04:19:52;1.02;;;0.68;;
58384;SDS011;44185;47.844;8.966;2023-10-31T04:22:19;1.88;;;0.75;;
58384;SDS011;44185;47.844;8.966;2023-10-31T04:24:44;0.68;;;0.45;;
58384;SDS011;44185;47.844;8.966;2023-10-31T04:27:09;2.50;;;0.63;;
58384;SDS011;44185;47.844;8.966;2023-10-31T04:29:35;1.20;;;0.80;;
58384;SDS011;44185;47.844;8.966;2023-10-31T04:32:00;1.95;;;0.40;;
58384;SDS011;44185;47.844;8.966;2023-10-31T04:34:25;1.73;;;0.63;;
58384;SDS011;44185;47.844;8.966;2023-10-31T04:36:50;1.92;;;0.70;;
58384;SDS011;44185;47.844;8.966;2023-10-31T04:39:17;1.52;;;0.70;;
58384;SDS011;44185;47.844;8.966;2023-10-31T04:41:42;1.08;;;0.63;;
58384;SDS011;44185;47.844;8.966;2023-10-31T04:44:07;0.93;;;0.60;;
58384;SDS011;44185;47.844;8.966;2023-10-31T04:46:33;1.58;;;0.77;;
58384;SDS011;44185;47.844;8.966;2023-10-31T04:48:58;0.75;;;0.73;;
58384;SDS011;44185;47.844;8.966;2023-10-31T04:51:23;3.63;;;0.80;;
58384;SDS011;44185;47.844;8.966;2023-10-31T04:53:48;1.48;;;0.80;;
58384;SDS011;44185;47.844;8.966;2023-10-31T04:56:15;4.72;;;1.17;;
58384;SDS011;44185;47.844;8.966;2023-10-31T04:58:41;2.42;;;1.08;;
58384;SDS011;44185;47.844;8.966;2023-10-31T05:01:07;4.60;;;1.05;;
58384;SDS011;44185;47.844;8.966;2023-10-31T05:03:32;2.28;;;0.70;;
58384;SDS011;44185;47.844;8.966;2023-10-31T05:05:57;2.53;;;0.70;;
58384;SDS011;44185;47.844;8.966;2023-10-31T05:08:23;2.05;;;0.57;;
58384;SDS011;44185;47.844;8.966;2023-10-31T05:10:48;3.90;;;0.90;;
58384;SDS011;44185;47.844;8.966;2023-10-31T05:13:14;1.83;;;0.70;;
58384;SDS011;44185;47.844;8.966;2023-10-31T05:15:40;1.05;;;0.52;;
58384;SDS011;44185;47.844;8.966;2023-10-31T05:18:05;5.18;;;1.42;;
58384;SDS011;44185;47.844;8.966;2023-10-31T05:20:30;1.40;;;0.93;;
58384;SDS011;44185;47.844;8.966;2023-10-31T05:22:55;2.03;;;0.70;;
58384;SDS011;44185;47.844;8.966;2023-10-31T05:25:20;1.65;;;0.63;;
58384;SDS011;44185;47.844;8.966;2023-10-31T05:27:46;1.63;;;0.57;;
58384;SDS011;44185;47.844;8.966;2023-10-31T05:30:13;2.10;;;0.90;;
58384;SDS011;44185;47.844;8.966;2023-10-31T05:32:38;1.38;;;0.50;;
58384;SDS011;44185;47.844;8.966;2023-10-31T05:35:04;0.55;;;0.55;;
58384;SDS011;44185;47.844;8.966;2023-10-31T05:37:29;2.92;;;1.08;;
58384;SDS011;44185;47.844;8.966;2023-10-31T05:39:54;2.42;;;0.70;;
58384;SDS011;44185;47.844;8.966;2023-10-31T05:42:19;3.10;;;0.65;;
58384;SDS011;44185;47.844;8.966;2023-10-31T05:44:45;3.08;;;1.20;;
58384;SDS011;44185;47.844;8.966;2023-10-31T05:47:11;5.85;;;1.17;;
58384;SDS011;44185;47.844;8.966;2023-10-31T05:49:36;2.65;;;1.45;;
58384;SDS011;44185;47.844;8.966;2023-10-31T05:52:02;3.05;;;1.30;;
58384;SDS011;44185;47.844;8.966;2023-10-31T05:54:27;1.67;;;1.02;;
58384;SDS011;44185;47.844;8.966;2023-10-31T05:56:52;0.95;;;0.90;;
58384;SDS011;44185;47.844;8.966;2023-10-31T05:59:17;1.42;;;1.23;;
58384;SDS011;44185;47.844;8.966;2023-10-31T06:01:43;2.17;;;1.00;;
58384;SDS011;44185;47.844;8.966;2023-10-31T06:04:09;0.85;;;0.70;;
58384;SDS011;44185;47.844;8.966;2023-10-31T06:06:37;3.45;;;1.25;;
58384;SDS011;44185;47.844;8.966;2023-10-31T06:09:02;2.13;;;0.60;;
58384;SDS011;44185;47.844;8.966;2023-10-31T06:11:27;1.92;;;0.80;;
58384;SDS011;44185;47.844;8.966;2023-10-31T06:13:52;2.00;;;0.70;;
58384;SDS011;44185;47.844;8.966;2023-10-31T06:16:18;2.50;;;1.17;;
58384;SDS011;44185;47.844;8.966;2023-10-31T06:18:43;1.75;;;1.38;;
58384;SDS011;44185;47.844;8.966;2023-10-31T06:21:09;0.73;;;0.73;;
58384;SDS011;44185;47.844;8.966;2023-10-31T06:23:35;2.40;;;0.80;;
58384;SDS011;44185;47.844;8.966;2023-10-31T06:26:00;2.05;;;1.38;;
58384;SDS011;44185;47.844;8.966;2023-10-31T06:28:25;2.63;;;1.02;;
58384;SDS011;44185;47.844;8.966;2023-10-31T06:30:51;2.30;;;1.17;;
58384;SDS011;44185;47.844;8.966;2023-10-31T06:33:16;1.67;;;1.08;;
58384;SDS011;44185;47.844;8.966;2023-10-31T06:35:41;1.85;;;0.65;;
58384;SDS011;44185;47.844;8.966;2023-10-31T06:38:08;1.76;;;1.16;;
58384;SDS011;44185;47.844;8.966;2023-10-31T06:40:33;0.68;;;0.52;;
58384;SDS011;44185;47.844;8.966;2023-10-31T06:42:58;3.38;;;0.80;;
58384;SDS011;44185;47.844;8.966;2023-10-31T06:45:23;1.52;;;1.00;;
58384;SDS011;44185;47.844;8.966;2023-10-31T06:47:48;4.25;;;1.35;;
58384;SDS011;44185;47.844;8.966;2023-10-31T06:50:14;1.38;;;1.27;;
58384;SDS011;44185;47.844;8.966;2023-10-31T06:52:39;1.20;;;1.10;;
58384;SDS011;44185;47.844;8.966;2023-10-31T06:55:06;2.65;;;1.77;;
58384;SDS011;44185;47.844;8.966;2023-10-31T06:57:32;3.75;;;2.30;;
58384;SDS011;44185;47.844;8.966;2023-10-31T06:59:57;2.97;;;1.83;;
58384;SDS011;44185;47.844;8.966;2023-10-31T07:02:22;1.73;;;1.50;;
58384;SDS011;44185;47.844;8.966;2023-10-31T07:04:47;1.33;;;1.23;;
58384;SDS011;44185;47.844;8.966;2023-10-31T07:07:12;0.95;;;0.90;;
58384;SDS011;44185;47.844;8.966;2023-10-31T07:09:38;6.53;;;1.77;;
58384;SDS011;44185;47.844;8.966;2023-10-31T07:12:05;5.20;;;1.52;;
58384;SDS011;44185;47.844;8.966;2023-10-31T07:14:30;6.07;;;1.42;;
58384;SDS011;44185;47.844;8.966;2023-10-31T07:16:55;3.47;;;1.35;;
58384;SDS011;44185;47.844;8.966;2023-10-31T07:19:21;4.27;;;1.83;;
58384;SDS011;44185;47.844;8.966;2023-10-31T07:21:46;40.90;;;34.72;;
58384;SDS011;44185;47.844;8.966;2023-10-31T07:24:11;57.03;;;43.25;;
58384;SDS011;44185;47.844;8.966;2023-10-31T07:26:36;21.65;;;13.43;;
58384;SDS011;44185;47.844;8.966;2023-10-31T07:29:03;13.57;;;7.00;;
58384;SDS011;44185;47.844;8.966;2023-10-31T07:31:28;23.73;;;13.65;;
58384;SDS011;44185;47.844;8.966;2023-10-31T07:33:53;21.38;;;12.02;;
58384;SDS011;44185;47.844;8.966;2023-10-31T07:36:19;9.73;;;5.20;;
58384;SDS011;44185;47.844;8.966;2023-10-31T07:38:44;10.18;;;4.82;;
58384;SDS011;44185;47.844;8.966;2023-10-31T07:41:09;4.35;;;3.08;;
58384;SDS011;44185;47.844;8.966;2023-10-31T07:43:34;15.98;;;13.55;;
58384;SDS011;44185;47.844;8.966;2023-10-31T07:46:01;2.97;;;2.35;;
58384;SDS011;44185;47.844;8.966;2023-10-31T07:48:26;6.38;;;3.47;;
58384;SDS011;44185;47.844;8.966;2023-10-31T07:50:51;6.25;;;2.95;;
58384;SDS011;44185;47.844;8.966;2023-10-31T07:53:17;11.98;;;7.78;;
58384;SDS011;44185;47.844;8.966;2023-10-31T07:55:42;3.70;;;1.98;;
58384;SDS011;44185;47.844;8.966;2023-10-31T07:58:07;17.45;;;12.48;;
58384;SDS011;44185;47.844;8.966;2023-10-31T08:00:32;4.32;;;2.58;;
58384;SDS011;44185;47.844;8.966;2023-10-31T08:02:59;15.90;;;9.68;;
58384;SDS011;44185;47.844;8.966;2023-10-31T08:05:24;14.68;;;11.25;;
58384;SDS011;44185;47.844;8.966;2023-10-31T08:07:49;5.22;;;2.45;;
58384;SDS011;44185;47.844;8.966;2023-10-31T08:10:15;3.60;;;2.13;;
58384;SDS011;44185;47.844;8.966;2023-10-31T08:12:40;8.25;;;4.85;;
58384;SDS011;44185;47.844;8.966;2023-10-31T08:15:05;4.80;;;2.08;;
58384;SDS011;44185;47.844;8.966;2023-10-31T08:17:31;2.28;;;1.83;;
58384;SDS011;44185;47.844;8.966;2023-10-31T08:19:57;1.77;;;1.55;;
58384;SDS011;44185;47.844;8.966;2023-10-31T08:22:22;3.78;;;2.90;;
58384;SDS011;44185;47.844;8.966;2023-10-31T08:24:48;11.30;;;9.20;;
58384;SDS011;44185;47.844;8.966;2023-10-31T08:27:13;2.50;;;1.73;;
58384;SDS011;44185;47.844;8.966;2023-10-31T08:29:38;3.35;;;1.67;;
58384;SDS011;44185;47.844;8.966;2023-10-31T08:32:05;4.40;;;2.90;;
58384;SDS011;44185;47.844;8.966;2023-10-31T08:34:30;3.80;;;1.83;;
58384;SDS011;44185;47.844;8.966;2023-10-31T08:36:57;3.47;;;1.30;;
58384;SDS011;44185;47.844;8.966;2023-10-31T08:39:22;2.43;;;1.20;;
58384;SDS011;44185;47.844;8.966;2023-10-31T08:41:51;1.92;;;1.40;;
58384;SDS011;44185;47.844;8.966;2023-10-31T08:44:16;5.18;;;2.17;;
58384;SDS011;44185;47.844;8.966;2023-10-31T08:46:41;3.22;;;1.67;;
58384;SDS011;44185;47.844;8.966;2023-10-31T08:49:06;2.25;;;1.50;;
58384;SDS011;44185;47.844;8.966;2023-10-31T08:51:32;1.45;;;1.05;;
58384;SDS011;44185;47.844;8.966;2023-10-31T08:53:58;1.83;;;1.27;;
58384;SDS011;44185;47.844;8.966;2023-10-31T08:56:23;2.97;;;1.60;;
58384;SDS011;44185;47.844;8.966;2023-10-31T08:58:49;4.55;;;3.30;;
58384;SDS011;44185;47.844;8.966;2023-10-31T09:01:14;5.93;;;2.70;;
58384;SDS011;44185;47.844;8.966;2023-10-31T09:03:39;6.90;;;2.88;;
58384;SDS011;44185;47.844;8.966;2023-10-31T09:06:04;8.18;;;3.30;;
58384;SDS011;44185;47.844;8.966;2023-10-31T09:08:30;6.10;;;2.95;;
58384;SDS011;44185;47.844;8.966;2023-10-31T09:10:56;1.80;;;1.30;;
58384;SDS011;44185;47.844;8.966;2023-10-31T09:13:21;2.35;;;1.00;;
58384;SDS011;44185;47.844;8.966;2023-10-31T09:15:47;1.97;;;1.40;;
58384;SDS011;44185;47.844;8.966;2023-10-31T09:18:12;3.22;;;1.45;;
58384;SDS011;44185;47.844;8.966;2023-10-31T09:20:37;1.23;;;1.13;;
58384;SDS011;44185;47.844;8.966;2023-10-31T09:23:02;3.33;;;1.42;;
58384;SDS011;44185;47.844;8.966;2023-10-31T09:25:27;4.07;;;1.90;;
58384;SDS011;44185;47.844;8.966;2023-10-31T09:27:54;4.47;;;1.70;;
58384;SDS011;44185;47.844;8.966;2023-10-31T09:30:19;5.63;;;2.00;;
58384;SDS011;44185;47.844;8.966;2023-10-31T09:32:44;3.17;;;1.52;;
58384;SDS011;44185;47.844;8.966;2023-10-31T09:35:10;1.98;;;0.95;;
58384;SDS011;44185;47.844;8.966;2023-10-31T09:37:35;2.53;;;1.10;;
58384;SDS011;44185;47.844;8.966;2023-10-31T09:40:00;2.33;;;1.40;;
58384;SDS011;44185;47.844;8.966;2023-10-31T09:42:25;3.25;;;1.75;;
58384;SDS011;44185;47.844;8.966;2023-10-31T09:44:52;5.03;;;2.20;;
58384;SDS011;44185;47.844;8.966;2023-10-31T09:47:17;3.13;;;2.20;;
58384;SDS011;44185;47.844;8.966;2023-10-31T09:49:44;6.15;;;2.28;;
58384;SDS011;44185;47.844;8.966;2023-10-31T09:52:09;2.65;;;1.85;;
58384;SDS011;44185;47.844;8.966;2023-10-31T09:54:35;3.30;;;1.77;;
58384;SDS011;44185;47.844;8.966;2023-10-31T09:57:02;6.03;;;2.75;;
58384;SDS011;44185;47.844;8.966;2023-10-31T09:59:27;3.20;;;1.80;;
58384;SDS011;44185;47.844;8.966;2023-10-31T10:01:54;4.10;;;1.90;;
58384;SDS011;44185;47.844;8.966;2023-10-31T10:04:19;3.47;;;1.98;;
58384;SDS011;44185;47.844;8.966;2023-10-31T10:06:51;2.55;;;1.92;;
58384;SDS011;44185;47.844;8.966;2023-10-31T10:09:17;3.78;;;2.45;;
58384;SDS011;44185;47.844;8.966;2023-10-31T10:11:42;4.40;;;2.00;;
58384;SDS011;44185;47.844;8.966;2023-10-31T10:14:07;1.92;;;1.70;;
58384;SDS011;44185;47.844;8.966;2023-10-31T10:16:33;1.30;;;1.15;;
58384;SDS011;44185;47.844;8.966;2023-10-31T10:19:05;2.75;;;1.85;;
58384;SDS011;44185;47.844;8.966;2023-10-31T10:21:46;2.05;;;1.63;;
58384;SDS011;44185;47.844;8.966;2023-10-31T10:24:11;2.97;;;1.60;;
58384;SDS011;44185;47.844;8.966;2023-10-31T10:26:36;0.90;;;0.90;;
58384;SDS011;44185;47.844;8.966;2023-10-31T10:29:02;2.15;;;1.65;;
58384;SDS011;44185;47.844;8.966;2023-10-31T10:31:27;4.10;;;2.00;;
58384;SDS011;44185;47.844;8.966;2023-10-31T10:33:52;2.30;;;1.70;;
58384;SDS011;44185;47.844;8.966;2023-10-31T10:36:19;2.58;;;1.20;;
58384;SDS011;44185;47.844;8.966;2023-10-31T10:38:44;3.83;;;1.55;;
58384;SDS011;44185;47.844;8.966;2023-10-31T10:41:11;2.33;;;0.93;;
58384;SDS011;44185;47.844;8.966;2023-10-31T10:43:39;1.33;;;1.02;;
58384;SDS011;44185;47.844;8.966;2023-10-31T10:46:05;2.60;;;1.85;;
58384;SDS011;44185;47.844;8.966;2023-10-31T10:48:32;1.10;;;1.00;;
58384;SDS011;44185;47.844;8.966;2023-10-31T10:51:03;2.50;;;1.70;;
58384;SDS011;44185;47.844;8.966;2023-10-31T10:53:33;3.20;;;1.95;;
58384;SDS011;44185;47.844;8.966;2023-10-31T10:56:00;2.58;;;1.20;;
58384;SDS011;44185;47.844;8.966;2023-10-31T10:58:31;1.13;;;1.02;;
58384;SDS011;44185;47.844;8.966;2023-10-31T11:00:58;1.45;;;0.93;;
58384;SDS011;44185;47.844;8.966;2023-10-31T11:03:24;1.30;;;0.80;;
58384;SDS011;44185;47.844;8.966;2023-10-31T11:05:51;1.92;;;0.70;;
58384;SDS011;44185;47.844;8.966;2023-10-31T11:08:16;0.75;;;0.60;;
58384;SDS011;44185;47.844;8.966;2023-10-31T11:10:43;2.33;;;0.75;;
58384;SDS011;44185;47.844;8.966;2023-10-31T11:13:09;1.25;;;0.70;;
58384;SDS011;44185;47.844;8.966;2023-10-31T11:15:36;0.80;;;0.80;;
58384;SDS011;44185;47.844;8.966;2023-10-31T11:18:02;1.95;;;1.05;;
58384;SDS011;44185;47.844;8.966;2023-10-31T11:20:27;0.52;;;0.50;;
58384;SDS011;44185;47.844;8.966;2023-10-31T11:22:54;2.28;;;0.77;;
58384;SDS011;44185;47.844;8.966;2023-10-31T11:25:20;1.65;;;0.90;;
58384;SDS011;44185;47.844;8.966;2023-10-31T11:27:47;0.55;;;0.55;;
58384;SDS011;44185;47.844;8.966;2023-10-31T11:30:19;0.70;;;0.70;;
58384;SDS011;44185;47.844;8.966;2023-10-31T11:32:47;1.05;;;0.85;;
58384;SDS011;44185;47.844;8.966;2023-10-31T11:35:12;1.50;;;1.00;;
58384;SDS011;44185;47.844;8.966;2023-10-31T11:37:37;2.00;;;0.73;;
58384;SDS011;44185;47.844;8.966;2023-10-31T11:40:15;1.20;;;0.90;;
58384;SDS011;44185;47.844;8.966;2023-10-31T11:42:41;1.70;;;1.00;;
58384;SDS011;44185;47.844;8.966;2023-10-31T11:45:08;1.15;;;0.80;;
58384;SDS011;44185;47.844;8.966;2023-10-31T11:47:44;2.30;;;0.95;;
58384;SDS011;44185;47.844;8.966;2023-10-31T11:50:10;0.68;;;0.68;;
58384;SDS011;44185;47.844;8.966;2023-10-31T11:52:35;0.70;;;0.70;;
58384;SDS011;44185;47.844;8.966;2023-10-31T11:55:00;0.95;;;0.85;;
58384;SDS011;44185;47.844;8.966;2023-10-31T11:57:27;1.80;;;1.00;;
58384;SDS011;44185;47.844;8.966;2023-10-31T11:59:52;1.17;;;0.57;;
58384;SDS011;44185;47.844;8.966;2023-10-31T12:02:19;1.63;;;1.23;;
58384;SDS011;44185;47.844;8.966;2023-10-31T12:04:44;3.45;;;1.60;;
58384;SDS011;44185;47.844;8.966;2023-10-31T12:07:09;2.22;;;1.23;;
58384;SDS011;44185;47.844;8.966;2023-10-31T12:09:45;1.45;;;1.35;;
58384;SDS011;44185;47.844;8.966;2023-10-31T12:12:10;1.27;;;1.17;;
58384;SDS011;44185;47.844;8.966;2023-10-31T12:14:35;3.47;;;0.90;;
58384;SDS011;44185;47.844;8.966;2023-10-31T12:17:03;2.22;;;1.08;;
58384;SDS011;44185;47.844;8.966;2023-10-31T12:19:30;1.20;;;1.10;;
58384;SDS011;44185;47.844;8.966;2023-10-31T12:21:55;1.38;;;0.90;;
58384;SDS011;44185;47.844;8.966;2023-10-31T12:24:20;1.10;;;1.00;;
58384;SDS011;44185;47.844;8.966;2023-10-31T12:26:45;2.65;;;1.17;;
58384;SDS011;44185;47.844;8.966;2023-10-31T12:29:11;1.30;;;1.17;;
58384;SDS011;44185;47.844;8.966;2023-10-31T12:31:42;1.08;;;0.82;;
58384;SDS011;44185;47.844;8.966;2023-10-31T12:34:07;0.80;;;0.80;;
58384;SDS011;44185;47.844;8.966;2023-10-31T12:36:34;0.85;;;0.70;;
58384;SDS011;44185;47.844;8.966;2023-10-31T12:39:00;1.10;;;0.82;;
58384;SDS011;44185;47.844;8.966;2023-10-31T12:41:26;0.70;;;0.70;;
58384;SDS011;44185;47.844;8.966;2023-10-31T12:43:51;1.33;;;0.80;;
58384;SDS011;44185;47.844;8.966;2023-10-31T12:46:27;1.10;;;1.00;;
58384;SDS011;44185;47.844;8.966;2023-10-31T12:48:52;1.27;;;0.80;;
58384;SDS011;44185;47.844;8.966;2023-10-31T12:51:17;1.30;;;1.17;;
58384;SDS011;44185;47.844;8.966;2023-10-31T12:53:46;1.15;;;1.05;;
58384;SDS011;44185;47.844;8.966;2023-10-31T12:58:38;1.02;;;0.82;;
58384;SDS011;44185;47.844;8.966;2023-10-31T13:01:10;1.58;;;0.90;;
58384;SDS011;44185;47.844;8.966;2023-10-31T13:03:37;0.85;;;0.70;;
58384;SDS011;44185;47.844;8.966;2023-10-31T13:06:13;1.20;;;0.95;;
58384;SDS011;44185;47.844;8.966;2023-10-31T13:08:39;1.27;;;0.77;;
58384;SDS011;44185;47.844;8.966;2023-10-31T13:11:05;1.88;;;0.80;;
58384;SDS011;44185;47.844;8.966;2023-10-31T13:13:33;1.25;;;0.60;;
58384;SDS011;44185;47.844;8.966;2023-10-31T13:15:59;2.22;;;1.33;;
58384;SDS011;44185;47.844;8.966;2023-10-31T13:18:24;1.98;;;1.63;;
58384;SDS011;44185;47.844;8.966;2023-10-31T13:20:49;1.42;;;0.80;;
58384;SDS011;44185;47.844;8.966;2023-10-31T13:23:14;0.82;;;0.82;;
58384;SDS011;44185;47.844;8.966;2023-10-31T13:25:39;3.90;;;0.90;;
58384;SDS011;44185;47.844;8.966;2023-10-31T13:28:06;1.10;;;0.95;;
58384;SDS011;44185;47.844;8.966;2023-10-31T13:30:32;2.92;;;1.55;;
58384;SDS011;44185;47.844;8.966;2023-10-31T13:32:57;1.85;;;0.75;;
58384;SDS011;44185;47.844;8.966;2023-10-31T13:35:22;3.47;;;1.58;;
58384;SDS011;44185;47.844;8.966;2023-10-31T13:37:47;3.72;;;1.98;;
58384;SDS011;44185;47.844;8.966;2023-10-31T13:40:13;6.30;;;2.08;;
58384;SDS011;44185;47.844;8.966;2023-10-31T13:42:38;1.58;;;1.27;;
58384;SDS011;44185;47.844;8.966;2023-10-31T13:45:05;2.42;;;1.50;;
58384;SDS011;44185;47.844;8.966;2023-10-31T13:47:30;1.77;;;1.08;;
58384;SDS011;44185;47.844;8.966;2023-10-31T13:49:55;2.15;;;1.67;;
58384;SDS011;44185;47.844;8.966;2023-10-31T13:52:21;1.98;;;1.77;;
58384;SDS011;44185;47.844;8.966;2023-10-31T13:54:46;3.88;;;1.70;;
58384;SDS011;44185;47.844;8.966;2023-10-31T13:57:11;4.30;;;1.95;;
58384;SDS011;44185;47.844;8.966;2023-10-31T13:59:36;3.83;;;1.90;;
58384;SDS011;44185;47.844;8.966;2023-10-31T14:02:03;2.78;;;1.15;;
58384;SDS011;44185;47.844;8.966;2023-10-31T14:04:28;2.58;;;1.48;;
58384;SDS011;44185;47.844;8.966;2023-10-31T14:06:54;2.72;;;1.70;;
58384;SDS011;44185;47.844;8.966;2023-10-31T14:09:19;3.78;;;1.80;;
58384;SDS011;44185;47.844;8.966;2023-10-31T14:11:44;2.85;;;1.90;;
58384;SDS011;44185;47.844;8.966;2023-10-31T14:14:09;3.60;;;2.45;;
58384;SDS011;44185;47.844;8.966;2023-10-31T14:16:35;4.38;;;2.60;;
58384;SDS011;44185;47.844;8.966;2023-10-31T14:19:01;3.90;;;2.33;;
58384;SDS011;44185;47.844;8.966;2023-10-31T14:21:27;4.20;;;2.10;;
58384;SDS011;44185;47.844;8.966;2023-10-31T14:23:52;2.83;;;2.10;;
58384;SDS011;44185;47.844;8.966;2023-10-31T14:26:17;2.28;;;2.05;;
58384;SDS011;44185;47.844;8.966;2023-10-31T14:28:42;3.17;;;2.30;;
58384;SDS011;44185;47.844;8.966;2023-10-31T14:31:07;3.63;;;2.60;;
58384;SDS011;44185;47.844;8.966;2023-10-31T14:33:33;2.00;;;1.80;;
58384;SDS011;44185;47.844;8.966;2023-10-31T14:35:59;3.40;;;1.70;;
58384;SDS011;44185;47.844;8.966;2023-10-31T14:38:24;2.85;;;1.67;;
58384;SDS011;44185;47.844;8.966;2023-10-31T14:40:50;4.78;;;1.75;;